Raymond, Georgia
Current Conditions -  °F | °C
As of 3:55 AM on Saturday 25 Oct 2014 (Local Time) from KCCO Reporting Station
Clear Clear  
Wind Chill: 54°   Ceiling: Unl
Heat Index: 54°   Visibility: 10mi
Dew Point: 45°   Wind: 5mph
Humidity: 71%   Direction: 340°NNW
Pressure: 30.03"   Gusts: NA
Location:  33.3877°N, 84.8596°W
Report Text: KCCO 250755Z AUTO 34004KT 10SM CLR 12/07 A3003 RMK AO2 T01220071
Loading
Personal Weather Stations






























Interactive Weather Map New forecast layout! Learn more

10-Day Weather Forecast

Advertisements
Track Severe Weather on mobile